Time;durP1;ratioP1;P1;durP2;ratioP2;P2;SDS_P1;SDS_P2;PMS_P1;PMS_P2;Temp;Humidity;BMP_temperature;BMP_pressure;BME280_temperature;BME280_humidity;BME280_pressure;Samples;Min_cycle;Max_cycle;Signal;HPM_P1;HPM_P2
2022/08/21 00:02:23;;;;;;;22.75;17.27;;;;;;;;;;5011841;28;20013;-78
2022/08/21 00:04:50;;;;;;;18.95;16.77;;;;;;;;;;5020252;28;20451;-78
2022/08/21 00:07:16;;;;;;;22.42;19.02;;;;;;;;;;5020468;28;20026;-77
2022/08/21 00:09:41;;;;;;;22.65;20.35;;;;;;;;;;5022090;28;20040;-78
2022/08/21 00:12:07;;;;;;;22.83;20.40;;;;;;;;;;5020499;28;20100;-77
2022/08/21 00:14:32;;;;;;;22.40;20.23;;;;;;;;;;5014605;28;20056;-77
2022/08/21 00:16:58;;;;;;;24.75;22.30;;;;;;;;;;5012791;28;20029;-76
2022/08/21 00:19:24;;;;;;;25.38;22.80;;;;;;;;;;5015982;28;20022;-78
2022/08/21 00:21:51;;;;;;;22.98;20.77;;;;;;;;;;5021531;28;20035;-78
2022/08/21 00:24:17;;;;;;;22.77;20.50;;;;;;;;;;5020900;28;20067;-77
2022/08/21 00:26:43;;;;;;;23.60;19.20;;;;;;;;;;5018454;28;20452;-78
2022/08/21 00:29:08;;;;;;;18.23;15.60;;;;;;;;;;5015199;28;20095;-78
2022/08/21 00:31:33;;;;;;;17.55;14.82;;;;;;;;;;5018208;28;20091;-78
2022/08/21 00:33:59;;;;;;;16.83;15.07;;;;;;;;;;5014762;28;20472;-77
2022/08/21 00:36:24;;;;;;;16.73;14.95;;;;;;;;;;5021609;28;20392;-77
2022/08/21 00:38:50;;;;;;;17.05;15.32;;;;;;;;;;5021278;28;20461;-77
2022/08/21 00:41:15;;;;;;;16.13;14.57;;;;;;;;;;5012687;28;20061;-77
2022/08/21 00:43:40;;;;;;;16.10;14.45;;;;;;;;;;5009555;28;22085;-77
2022/08/21 00:46:06;;;;;;;16.00;14.52;;;;;;;;;;5008986;28;20040;-78
2022/08/21 00:48:32;;;;;;;17.95;14.52;;;;;;;;;;5009129;28;20056;-77
2022/08/21 00:50:57;;;;;;;16.25;13.82;;;;;;;;;;5012275;28;20057;-79
2022/08/21 00:53:23;;;;;;;15.63;13.60;;;;;;;;;;5020944;28;20088;-77
2022/08/21 00:55:49;;;;;;;15.45;13.82;;;;;;;;;;5020950;28;20029;-78
2022/08/21 00:58:15;;;;;;;18.95;15.27;;;;;;;;;;5020517;28;20025;-77
2022/08/21 01:00:42;;;;;;;23.08;14.60;;;;;;;;;;5021808;28;20033;-78
2022/08/21 01:03:15;;;;;;;15.25;13.75;;;;;;;;;;5021116;28;20033;-77
2022/08/21 01:05:41;;;;;;;16.02;14.30;;;;;;;;;;5020312;28;20456;-76
2022/08/21 01:08:07;;;;;;;17.73;15.15;;;;;;;;;;5010615;28;20474;-75
2022/08/21 01:10:33;;;;;;;16.58;14.90;;;;;;;;;;5020496;28;20515;-78
2022/08/21 01:12:59;;;;;;;15.65;14.02;;;;;;;;;;5011018;28;20025;-76
2022/08/21 01:15:26;;;;;;;15.30;13.70;;;;;;;;;;5021009;28;20040;-77
2022/08/21 01:17:53;;;;;;;17.92;13.82;;;;;;;;;;5020797;28;20105;-77
2022/08/21 01:20:18;;;;;;;15.68;12.93;;;;;;;;;;5019873;28;20029;-76
2022/08/21 01:22:44;;;;;;;18.25;15.20;;;;;;;;;;5014206;28;20079;-75
2022/08/21 01:25:11;;;;;;;16.92;15.27;;;;;;;;;;5016321;28;20099;-76
2022/08/21 01:27:36;;;;;;;16.77;15.07;;;;;;;;;;5015433;28;20025;-76
2022/08/21 01:30:13;;;;;;;19.45;14.90;;;;;;;;;;5015300;28;20040;-77
2022/08/21 01:32:38;;;;;;;17.95;15.02;;;;;;;;;;5018713;28;20080;-76
2022/08/21 01:35:04;;;;;;;17.27;15.55;;;;;;;;;;5019139;28;20353;-77
2022/08/21 01:37:30;;;;;;;18.50;16.27;;;;;;;;;;5015709;28;20040;-77
2022/08/21 01:39:55;;;;;;;18.73;15.82;;;;;;;;;;5015347;28;20439;-76
2022/08/21 01:42:22;;;;;;;18.33;15.20;;;;;;;;;;5008705;28;20045;-77
2022/08/21 01:44:47;;;;;;;16.30;14.68;;;;;;;;;;5020359;28;20038;-76
2022/08/21 01:47:14;;;;;;;15.38;13.18;;;;;;;;;;5018943;28;20040;-76
2022/08/21 01:49:40;;;;;;;15.52;12.45;;;;;;;;;;5021558;28;20029;-78
2022/08/21 01:52:06;;;;;;;21.77;13.77;;;;;;;;;;5017034;28;20033;-78
2022/08/21 01:54:31;;;;;;;15.05;13.52;;;;;;;;;;4992244;28;20026;-75
2022/08/21 01:56:57;;;;;;;17.60;15.38;;;;;;;;;;5019798;28;20183;-77
2022/08/21 01:59:24;;;;;;;15.82;14.38;;;;;;;;;;5020250;28;20086;-78
2022/08/21 02:01:49;;;;;;;17.42;15.65;;;;;;;;;;5020139;28;20029;-78
2022/08/21 02:04:15;;;;;;;19.65;15.57;;;;;;;;;;5019094;28;20021;-78
2022/08/21 02:06:41;;;;;;;17.65;15.85;;;;;;;;;;5016749;28;20179;-77
2022/08/21 02:09:07;;;;;;;20.95;15.10;;;;;;;;;;5009315;28;20029;-78
2022/08/21 02:11:33;;;;;;;20.27;15.95;;;;;;;;;;5014339;28;20147;-77
2022/08/21 02:13:59;;;;;;;16.35;14.65;;;;;;;;;;5018061;28;20112;-77
2022/08/21 02:16:24;;;;;;;14.38;13.02;;;;;;;;;;5019999;28;20162;-78
2022/08/21 02:18:49;;;;;;;14.93;13.43;;;;;;;;;;5020815;28;20030;-77
2022/08/21 02:21:15;;;;;;;14.52;12.82;;;;;;;;;;5020916;28;20037;-78
2022/08/21 02:23:40;;;;;;;15.00;13.40;;;;;;;;;;5008845;28;20029;-79
2022/08/21 02:26:06;;;;;;;13.45;12.15;;;;;;;;;;5021257;28;20025;-78
2022/08/21 02:28:32;;;;;;;15.45;13.13;;;;;;;;;;5022819;28;20467;-78
2022/08/21 02:30:57;;;;;;;14.77;13.35;;;;;;;;;;5018031;28;20021;-78
2022/08/21 02:33:23;;;;;;;16.60;12.93;;;;;;;;;;5013336;28;20021;-77
2022/08/21 02:35:49;;;;;;;14.00;12.35;;;;;;;;;;5023537;28;20068;-77
2022/08/21 02:38:17;;;;;;;11.98;10.70;;;;;;;;;;5017980;28;20021;-78
2022/08/21 02:40:44;;;;;;;13.02;11.02;;;;;;;;;;5012028;28;20033;-77
2022/08/21 02:43:09;;;;;;;14.57;10.48;;;;;;;;;;5011611;28;20566;-78
2022/08/21 02:45:35;;;;;;;12.13;10.77;;;;;;;;;;5010772;28;20021;-77
2022/08/21 02:48:02;;;;;;;12.57;11.38;;;;;;;;;;5019061;28;20037;-77
2022/08/21 02:50:29;;;;;;;15.05;11.32;;;;;;;;;;5024083;28;20021;-77
2022/08/21 02:52:55;;;;;;;14.02;11.27;;;;;;;;;;5023913;28;20368;-77
2022/08/21 02:55:26;;;;;;;11.50;10.45;;;;;;;;;;5021173;28;20025;-76
2022/08/21 02:57:52;;;;;;;12.77;10.80;;;;;;;;;;5017304;28;20144;-77
2022/08/21 03:00:19;;;;;;;14.82;10.70;;;;;;;;;;5026496;28;20049;-78
2022/08/21 03:02:46;;;;;;;12.02;10.93;;;;;;;;;;5025254;28;20030;-77
2022/08/21 03:05:12;;;;;;;15.15;11.23;;;;;;;;;;5020304;28;20021;-78
2022/08/21 03:07:38;;;;;;;13.35;11.05;;;;;;;;;;5010847;28;20611;-78
2022/08/21 03:10:05;;;;;;;12.25;11.05;;;;;;;;;;5020299;28;20030;-79
2022/08/21 03:12:30;;;;;;;12.35;10.68;;;;;;;;;;5024321;28;20057;-76
2022/08/21 03:14:57;;;;;;;16.10;10.88;;;;;;;;;;5024708;28;20055;-77
2022/08/21 03:17:23;;;;;;;17.77;11.85;;;;;;;;;;5023627;28;20036;-77
2022/08/21 03:19:48;;;;;;;14.95;11.00;;;;;;;;;;5025246;28;20033;-75
2022/08/21 03:22:14;;;;;;;15.70;12.30;;;;;;;;;;5025201;28;20063;-79
2022/08/21 03:24:39;;;;;;;13.70;12.30;;;;;;;;;;5022214;28;20037;-76
2022/08/21 03:27:05;;;;;;;14.50;11.45;;;;;;;;;;5022172;28;20445;-78
2022/08/21 03:29:30;;;;;;;13.00;11.70;;;;;;;;;;5023728;28;21034;-78
2022/08/21 03:31:55;;;;;;;12.63;10.93;;;;;;;;;;5022349;28;20038;-77
2022/08/21 03:34:21;;;;;;;16.20;11.80;;;;;;;;;;5014661;28;20064;-78
2022/08/21 03:36:46;;;;;;;16.08;12.55;;;;;;;;;;5023860;28;20044;-77
2022/08/21 03:39:12;;;;;;;12.60;11.30;;;;;;;;;;5027783;28;20033;-77
2022/08/21 03:41:37;;;;;;;11.82;10.60;;;;;;;;;;5024214;28;20088;-79
2022/08/21 03:44:03;;;;;;;12.55;11.35;;;;;;;;;;5022715;28;20083;-78
2022/08/21 03:46:28;;;;;;;11.40;10.30;;;;;;;;;;5024021;28;20091;-77
2022/08/21 03:48:53;;;;;;;18.35;11.18;;;;;;;;;;5024098;28;20029;-76
2022/08/21 03:51:19;;;;;;;14.10;10.80;;;;;;;;;;5025467;28;20024;-77
2022/08/21 03:53:44;;;;;;;16.33;11.88;;;;;;;;;;5025609;28;20029;-77
2022/08/21 03:56:10;;;;;;;10.88;9.63;;;;;;;;;;5024008;28;20867;-77
2022/08/21 03:58:36;;;;;;;13.90;11.10;;;;;;;;;;5021936;28;20121;-78
2022/08/21 04:01:02;;;;;;;10.93;9.85;;;;;;;;;;5021963;28;20033;-77
2022/08/21 04:03:28;;;;;;;14.38;10.55;;;;;;;;;;5025970;28;20106;-78
2022/08/21 04:05:53;;;;;;;14.20;11.32;;;;;;;;;;5022227;28;20406;-78
2022/08/21 04:08:19;;;;;;;14.30;10.85;;;;;;;;;;5023367;28;20033;-75
2022/08/21 04:10:46;;;;;;;12.98;9.80;;;;;;;;;;5025173;28;20168;-77
2022/08/21 04:13:11;;;;;;;11.30;10.02;;;;;;;;;;5024630;28;20025;-77
2022/08/21 04:15:37;;;;;;;12.10;9.77;;;;;;;;;;5022875;28;20449;-78
2022/08/21 04:18:03;;;;;;;15.77;10.98;;;;;;;;;;4992290;28;20124;-79
2022/08/21 04:20:28;;;;;;;13.30;11.52;;;;;;;;;;5021384;28;20030;-78
2022/08/21 04:22:54;;;;;;;12.30;11.13;;;;;;;;;;5022661;28;20915;-79
2022/08/21 04:25:20;;;;;;;13.27;11.98;;;;;;;;;;5024324;28;20037;-77
2022/08/21 04:27:46;;;;;;;13.68;11.93;;;;;;;;;;5022509;28;20037;-77
2022/08/21 04:30:13;;;;;;;17.95;13.10;;;;;;;;;;5022642;28;20029;-76
2022/08/21 04:32:38;;;;;;;14.25;12.77;;;;;;;;;;5023371;28;20033;-76
2022/08/21 04:35:06;;;;;;;14.70;12.50;;;;;;;;;;5020947;28;23223;-78
2022/08/21 04:37:31;;;;;;;13.77;11.88;;;;;;;;;;5016034;28;20032;-76
2022/08/21 04:39:59;;;;;;;14.60;13.10;;;;;;;;;;5021405;28;20030;-75
2022/08/21 04:42:25;;;;;;;14.75;12.50;;;;;;;;;;5020549;28;20050;-75
2022/08/21 04:44:51;;;;;;;17.40;13.70;;;;;;;;;;5008963;28;20032;-75
2022/08/21 04:47:16;;;;;;;16.20;13.48;;;;;;;;;;5011377;28;20083;-76
2022/08/21 04:49:42;;;;;;;20.08;13.80;;;;;;;;;;5020627;28;20025;-75
2022/08/21 04:52:07;;;;;;;16.48;14.40;;;;;;;;;;5012868;28;20029;-74
2022/08/21 04:54:33;;;;;;;18.40;13.85;;;;;;;;;;5010360;28;20021;-76
2022/08/21 04:57:05;;;;;;;19.20;14.25;;;;;;;;;;5009686;28;20060;-75
2022/08/21 04:59:35;;;;;;;16.85;15.13;;;;;;;;;;5010895;28;20087;-76
2022/08/21 05:02:01;;;;;;;17.35;15.55;;;;;;;;;;5017897;28;20018;-74
2022/08/21 05:04:29;;;;;;;19.77;14.85;;;;;;;;;;5015470;28;20082;-78
2022/08/21 05:06:56;;;;;;;16.55;14.10;;;;;;;;;;5010331;28;20033;-75
2022/08/21 05:09:22;;;;;;;14.07;12.43;;;;;;;;;;5008591;28;20068;-76
2022/08/21 05:11:48;;;;;;;12.48;10.88;;;;;;;;;;5008646;28;20464;-77
2022/08/21 05:14:13;;;;;;;11.45;9.02;;;;;;;;;;5009160;28;20025;-75
2022/08/21 05:16:40;;;;;;;11.18;10.05;;;;;;;;;;4990631;28;20033;-75
2022/08/21 05:19:06;;;;;;;14.15;11.20;;;;;;;;;;5008546;28;20041;-77
2022/08/21 05:21:31;;;;;;;12.32;10.65;;;;;;;;;;5009205;28;20032;-77
2022/08/21 05:23:56;;;;;;;12.60;10.18;;;;;;;;;;5006727;28;20018;-77
2022/08/21 05:26:22;;;;;;;10.75;8.23;;;;;;;;;;5009200;28;20060;-75
2022/08/21 05:28:47;;;;;;;11.48;8.50;;;;;;;;;;4990691;28;20049;-76
2022/08/21 05:31:12;;;;;;;11.18;8.40;;;;;;;;;;5007543;28;20025;-76
2022/08/21 05:33:38;;;;;;;9.85;7.72;;;;;;;;;;5008301;28;20079;-76
2022/08/21 05:36:03;;;;;;;9.95;7.88;;;;;;;;;;5008692;28;20028;-75
2022/08/21 05:38:28;;;;;;;12.77;8.05;;;;;;;;;;5008618;28;20052;-75
2022/08/21 05:40:54;;;;;;;12.05;8.43;;;;;;;;;;5007498;28;20038;-75
2022/08/21 05:43:20;;;;;;;11.60;8.35;;;;;;;;;;5008599;28;20021;-78
2022/08/21 05:45:45;;;;;;;8.88;7.75;;;;;;;;;;5008896;28;20029;-75
2022/08/21 05:48:21;;;;;;;9.07;6.88;;;;;;;;;;5018795;28;20354;-76
2022/08/21 05:50:48;;;;;;;8.75;7.22;;;;;;;;;;5022483;28;20034;-79
2022/08/21 05:53:14;;;;;;;8.68;7.78;;;;;;;;;;5021043;28;20017;-78
2022/08/21 05:55:40;;;;;;;13.05;8.43;;;;;;;;;;5020180;28;20025;-78
2022/08/21 05:58:06;;;;;;;9.75;8.75;;;;;;;;;;5020604;28;20380;-79
2022/08/21 06:00:32;;;;;;;11.55;9.13;;;;;;;;;;5013659;28;20359;-78
2022/08/21 06:02:57;;;;;;;11.25;8.90;;;;;;;;;;5011918;28;20111;-78
2022/08/21 06:05:23;;;;;;;13.27;9.82;;;;;;;;;;5019346;28;20444;-79
2022/08/21 06:07:48;;;;;;;11.70;9.38;;;;;;;;;;5012566;28;20036;-80
2022/08/21 06:10:14;;;;;;;12.38;10.23;;;;;;;;;;5019785;28;23846;-77
2022/08/21 06:12:39;;;;;;;13.57;10.52;;;;;;;;;;5025676;28;20715;-76
2022/08/21 06:15:05;;;;;;;13.65;9.02;;;;;;;;;;5023949;28;20025;-76
2022/08/21 06:17:30;;;;;;;14.32;10.88;;;;;;;;;;5023517;28;20029;-75
2022/08/21 06:19:55;;;;;;;15.85;11.27;;;;;;;;;;5024856;28;20029;-76
2022/08/21 06:22:21;;;;;;;13.90;10.82;;;;;;;;;;5021811;28;20111;-78
2022/08/21 06:24:47;;;;;;;13.50;11.13;;;;;;;;;;5017021;28;20021;-78
2022/08/21 06:27:12;;;;;;;14.43;10.93;;;;;;;;;;5015145;28;20082;-76
2022/08/21 06:29:38;;;;;;;14.57;12.13;;;;;;;;;;4997307;28;20022;-76
2022/08/21 06:32:06;;;;;;;17.25;12.57;;;;;;;;;;5020399;28;20030;-76
2022/08/21 06:34:32;;;;;;;17.02;12.93;;;;;;;;;;5019725;28;20580;-79
2022/08/21 06:36:57;;;;;;;15.77;14.07;;;;;;;;;;5013344;28;20039;-76
2022/08/21 06:39:22;;;;;;;16.25;13.90;;;;;;;;;;5012722;28;20040;-76
2022/08/21 06:41:48;;;;;;;17.77;13.00;;;;;;;;;;5011097;28;20079;-75
2022/08/21 06:44:15;;;;;;;14.05;12.75;;;;;;;;;;5011725;28;20088;-77
2022/08/21 06:46:41;;;;;;;12.93;11.70;;;;;;;;;;5020977;28;20451;-76
2022/08/21 06:49:06;;;;;;;13.60;12.30;;;;;;;;;;5012757;28;20037;-76
2022/08/21 06:51:31;;;;;;;17.50;12.88;;;;;;;;;;5013603;28;20611;-77
2022/08/21 06:53:57;;;;;;;15.75;10.90;;;;;;;;;;5011969;28;20021;-76
2022/08/21 06:56:22;;;;;;;15.65;12.00;;;;;;;;;;5011333;28;20083;-78
2022/08/21 06:58:48;;;;;;;16.08;12.73;;;;;;;;;;5015281;28;20031;-75
2022/08/21 07:01:13;;;;;;;14.43;12.88;;;;;;;;;;5022384;28;20026;-75
2022/08/21 07:03:40;;;;;;;15.45;13.48;;;;;;;;;;5025151;28;20390;-74
2022/08/21 07:06:06;;;;;;;20.98;14.20;;;;;;;;;;5004795;28;20746;-78
2022/08/21 07:08:32;;;;;;;14.20;12.80;;;;;;;;;;5024297;28;20036;-78
2022/08/21 07:10:58;;;;;;;14.57;12.50;;;;;;;;;;5021932;28;20062;-77
2022/08/21 07:13:24;;;;;;;14.65;12.40;;;;;;;;;;5024632;28;20060;-75
2022/08/21 07:15:49;;;;;;;14.73;13.13;;;;;;;;;;5023008;28;20056;-75
2022/08/21 07:18:15;;;;;;;15.88;13.23;;;;;;;;;;5023133;28;20364;-76
2022/08/21 07:20:40;;;;;;;14.35;12.85;;;;;;;;;;5011025;28;20026;-78
2022/08/21 07:23:09;;;;;;;13.25;11.85;;;;;;;;;;5010843;28;20124;-75
2022/08/21 07:25:34;;;;;;;14.40;12.55;;;;;;;;;;5012606;28;20025;-76
2022/08/21 07:28:00;;;;;;;15.20;13.23;;;;;;;;;;5009598;28;20044;-76
2022/08/21 07:30:26;;;;;;;14.50;12.43;;;;;;;;;;5010813;28;20033;-75
2022/08/21 07:32:51;;;;;;;13.82;12.43;;;;;;;;;;5010672;28;20035;-76
2022/08/21 07:35:17;;;;;;;13.48;12.07;;;;;;;;;;5010792;28;20025;-75
2022/08/21 07:37:43;;;;;;;14.98;11.93;;;;;;;;;;5019729;28;20033;-73
2022/08/21 07:40:08;;;;;;;14.88;12.13;;;;;;;;;;5010788;28;20029;-75
2022/08/21 07:42:33;;;;;;;14.18;11.10;;;;;;;;;;5015484;28;20056;-75
2022/08/21 07:44:59;;;;;;;12.18;10.05;;;;;;;;;;5023476;28;20037;-77
2022/08/21 07:47:24;;;;;;;12.13;9.50;;;;;;;;;;5022384;28;20021;-77
2022/08/21 07:49:50;;;;;;;12.75;8.35;;;;;;;;;;5025205;28;20352;-75
2022/08/21 07:52:15;;;;;;;10.43;8.38;;;;;;;;;;5021707;28;20113;-78
2022/08/21 07:54:40;;;;;;;10.57;8.45;;;;;;;;;;5012092;28;20036;-77
2022/08/21 07:57:06;;;;;;;9.25;6.57;;;;;;;;;;5022557;28;20466;-75
2022/08/21 07:59:31;;;;;;;8.30;6.10;;;;;;;;;;5024649;28;20090;-75
2022/08/21 08:01:57;;;;;;;6.10;4.50;;;;;;;;;;5012192;28;20029;-78
2022/08/21 08:04:22;;;;;;;8.07;4.45;;;;;;;;;;5009405;28;20055;-77
2022/08/21 08:06:47;;;;;;;9.20;4.75;;;;;;;;;;5016511;28;20039;-77
2022/08/21 08:09:13;;;;;;;6.47;4.90;;;;;;;;;;5011367;28;20028;-76
2022/08/21 08:11:40;;;;;;;5.60;3.50;;;;;;;;;;5019938;28;20033;-76
2022/08/21 08:14:06;;;;;;;10.55;3.42;;;;;;;;;;5014077;28;20079;-79
2022/08/21 08:16:31;;;;;;;4.85;2.92;;;;;;;;;;5018496;28;20032;-74
2022/08/21 08:18:57;;;;;;;3.58;2.38;;;;;;;;;;5012512;28;20041;-75
2022/08/21 08:21:23;;;;;;;5.13;2.58;;;;;;;;;;5020654;28;20464;-76
2022/08/21 08:23:48;;;;;;;2.83;1.90;;;;;;;;;;5016105;28;20064;-75
2022/08/21 08:26:15;;;;;;;4.18;2.45;;;;;;;;;;5015665;28;20049;-76
2022/08/21 08:28:41;;;;;;;5.68;2.38;;;;;;;;;;5021659;28;20033;-77
2022/08/21 08:31:06;;;;;;;3.95;2.42;;;;;;;;;;5012173;28;20048;-76
2022/08/21 08:33:32;;;;;;;2.97;2.22;;;;;;;;;;5022074;28;20029;-75
2022/08/21 08:35:57;;;;;;;5.22;3.05;;;;;;;;;;5020178;28;20020;-78
2022/08/21 08:38:24;;;;;;;4.45;2.42;;;;;;;;;;5022768;28;20116;-77
2022/08/21 08:41:01;;;;;;;5.90;2.72;;;;;;;;;;5015678;28;20512;-78
2022/08/21 08:43:30;;;;;;;4.95;2.58;;;;;;;;;;5009918;28;20078;-76
2022/08/21 08:45:57;;;;;;;5.50;2.60;;;;;;;;;;5019997;28;20395;-77
2022/08/21 08:48:36;;;;;;;5.50;2.75;;;;;;;;;;5022453;28;20096;-77
2022/08/21 08:51:02;;;;;;;5.47;2.80;;;;;;;;;;5020737;28;20026;-76
2022/08/21 08:53:30;;;;;;;6.18;2.50;;;;;;;;;;5019650;28;20056;-77
2022/08/21 08:55:57;;;;;;;4.57;2.60;;;;;;;;;;5009915;28;20048;-75
2022/08/21 08:58:32;;;;;;;4.78;3.00;;;;;;;;;;5009719;28;20037;-75
2022/08/21 09:00:59;;;;;;;5.75;2.55;;;;;;;;;;5017470;28;20038;-76
2022/08/21 09:03:26;;;;;;;6.30;2.63;;;;;;;;;;5012040;28;20032;-77
2022/08/21 09:06:12;;;;;;;3.25;2.63;;;;;;;;;;5020966;28;20460;-75
2022/08/21 09:08:54;;;;;;;4.20;2.47;;;;;;;;;;5015824;28;20051;-77
2022/08/21 09:11:27;;;;;;;4.20;2.75;;;;;;;;;;4999159;28;20056;-77
2022/08/21 09:14:15;;;;;;;5.65;3.15;;;;;;;;;;5003041;28;20044;-76
2022/08/21 09:16:49;;;;;;;5.95;3.30;;;;;;;;;;5018998;28;20068;-75
2022/08/21 09:19:33;;;;;;;5.28;2.85;;;;;;;;;;5020374;28;20037;-77
2022/08/21 09:22:19;;;;;;;7.10;2.88;;;;;;;;;;5012854;28;20364;-77
2022/08/21 09:24:45;;;;;;;5.35;3.10;;;;;;;;;;5002186;28;20453;-77
2022/08/21 09:27:11;;;;;;;5.00;3.15;;;;;;;;;;5004322;28;20041;-77
2022/08/21 09:29:42;;;;;;;5.00;3.42;;;;;;;;;;5016443;28;20566;-78
2022/08/21 09:32:16;;;;;;;6.80;3.72;;;;;;;;;;5008155;28;20021;-76
2022/08/21 09:34:42;;;;;;;7.28;4.07;;;;;;;;;;5010222;28;20087;-76
2022/08/21 09:37:15;;;;;;;6.88;3.70;;;;;;;;;;5019303;28;20399;-74
2022/08/21 09:39:40;;;;;;;6.80;4.40;;;;;;;;;;5015513;28;20060;-78
2022/08/21 09:42:07;;;;;;;6.13;5.53;;;;;;;;;;5016545;28;20088;-76
2022/08/21 09:44:38;;;;;;;6.55;4.80;;;;;;;;;;5018953;28;20029;-83
2022/08/21 09:47:04;;;;;;;8.13;5.40;;;;;;;;;;5009568;28;20040;-76
2022/08/21 09:49:31;;;;;;;8.13;6.13;;;;;;;;;;5018734;28;20029;-80
2022/08/21 09:51:58;;;;;;;9.82;6.50;;;;;;;;;;5016775;28;20053;-78
2022/08/21 09:54:26;;;;;;;10.45;5.75;;;;;;;;;;5008629;28;20034;-78
2022/08/21 09:59:40;;;;;;;6.93;6.00;;;;;;;;;;5011981;28;20551;-77
2022/08/21 10:02:21;;;;;;;11.45;8.70;;;;;;;;;;5008581;28;20104;-77
2022/08/21 10:04:51;;;;;;;15.43;13.20;;;;;;;;;;4991393;28;20116;-77
2022/08/21 10:07:19;;;;;;;14.43;11.40;;;;;;;;;;5014943;28;20033;-74
2022/08/21 10:09:44;;;;;;;12.75;10.55;;;;;;;;;;5006963;28;20023;-75
2022/08/21 10:12:16;;;;;;;19.02;14.68;;;;;;;;;;5007522;28;20025;-75
2022/08/21 10:14:42;;;;;;;12.23;10.93;;;;;;;;;;5009160;28;20151;-75
2022/08/21 10:17:15;;;;;;;12.13;10.43;;;;;;;;;;5008508;28;20033;-76
2022/08/21 10:20:16;;;;;;;12.45;9.65;;;;;;;;;;5005320;28;20432;-77
2022/08/21 10:22:47;;;;;;;10.65;9.05;;;;;;;;;;4966600;28;20043;-79
2022/08/21 10:25:16;;;;;;;12.60;9.13;;;;;;;;;;4965963;28;20073;-79
2022/08/21 10:27:41;;;;;;;9.68;7.68;;;;;;;;;;4966358;28;20133;-79
2022/08/21 10:30:11;;;;;;;13.45;6.35;;;;;;;;;;4966862;28;20141;-78
2022/08/21 10:32:55;;;;;;;7.30;5.78;;;;;;;;;;4962810;28;20693;-78
2022/08/21 10:35:55;;;;;;;7.72;5.28;;;;;;;;;;4963734;28;20197;-77
2022/08/21 10:38:21;;;;;;;6.47;5.10;;;;;;;;;;4925416;28;20054;-77
2022/08/21 10:40:49;;;;;;;7.93;5.10;;;;;;;;;;4924788;28;20445;-78
2022/08/21 10:43:28;;;;;;;10.60;4.43;;;;;;;;;;4936718;28;20052;-75
2022/08/21 10:45:59;;;;;;;8.07;4.35;;;;;;;;;;4938051;28;20070;-77
2022/08/21 10:48:29;;;;;;;5.93;4.00;;;;;;;;;;4934335;28;20050;-78
2022/08/21 10:51:09;;;;;;;7.78;4.30;;;;;;;;;;4943007;28;20505;-78
2022/08/21 10:53:53;;;;;;;7.55;4.07;;;;;;;;;;4944101;28;20039;-76
2022/08/21 10:56:23;;;;;;;8.25;4.05;;;;;;;;;;4949741;28;20113;-77
2022/08/21 10:58:48;;;;;;;5.20;4.40;;;;;;;;;;4960663;28;20051;-76
2022/08/21 11:01:17;;;;;;;7.53;4.07;;;;;;;;;;4962122;28;20027;-75
2022/08/21 11:03:50;;;;;;;7.80;4.93;;;;;;;;;;4960932;28;20398;-75
2022/08/21 11:06:19;;;;;;;8.15;4.22;;;;;;;;;;4961016;28;20042;-76
2022/08/21 11:08:46;;;;;;;5.50;4.40;;;;;;;;;;4960823;28;20470;-76
2022/08/21 11:11:26;;;;;;;4.90;4.30;;;;;;;;;;4962492;28;20042;-74
2022/08/21 11:13:53;;;;;;;9.15;4.47;;;;;;;;;;5025490;28;20112;-76
2022/08/21 11:16:46;;;;;;;5.50;4.07;;;;;;;;;;5024595;28;20047;-76
2022/08/21 11:19:20;;;;;;;7.50;4.35;;;;;;;;;;5021476;28;20449;-77
2022/08/21 11:21:49;;;;;;;5.35;4.07;;;;;;;;;;5024847;28;20567;-78
2022/08/21 11:24:32;;;;;;;8.38;4.72;;;;;;;;;;5026393;28;20046;-77
2022/08/21 11:26:57;;;;;;;5.82;4.18;;;;;;;;;;5004952;28;20376;-77
2022/08/21 11:29:22;;;;;;;7.75;4.18;;;;;;;;;;5025772;28;20080;-76
2022/08/21 11:31:57;;;;;;;5.25;3.92;;;;;;;;;;5024726;28;20121;-76
2022/08/21 11:34:28;;;;;;;6.18;4.28;;;;;;;;;;5024278;28;22687;-77
2022/08/21 11:37:01;;;;;;;5.55;4.93;;;;;;;;;;5024728;28;20433;-78
2022/08/21 11:39:26;;;;;;;7.57;4.60;;;;;;;;;;5026477;28;20032;-77
2022/08/21 11:42:10;;;;;;;6.70;4.63;;;;;;;;;;5024237;28;20041;-77
2022/08/21 11:44:49;;;;;;;10.43;4.70;;;;;;;;;;5023432;28;20424;-77
2022/08/21 11:47:17;;;;;;;6.13;4.72;;;;;;;;;;5023387;28;20037;-77
2022/08/21 11:49:45;;;;;;;5.97;4.40;;;;;;;;;;5022505;28;20033;-79
2022/08/21 11:52:23;;;;;;;5.80;4.40;;;;;;;;;;5025142;28;20032;-76
2022/08/21 11:54:49;;;;;;;7.38;4.25;;;;;;;;;;5022195;28;20029;-77
2022/08/21 11:57:27;;;;;;;5.55;4.63;;;;;;;;;;5023454;28;20025;-80
2022/08/21 12:00:03;;;;;;;6.38;4.95;;;;;;;;;;5024283;28;20516;-74
2022/08/21 12:02:31;;;;;;;10.15;4.70;;;;;;;;;;5025529;28;20057;-77
2022/08/21 12:05:00;;;;;;;6.28;4.60;;;;;;;;;;5006207;28;20041;-78
2022/08/21 12:07:31;;;;;;;5.30;4.63;;;;;;;;;;5021822;28;20121;-76
2022/08/21 12:09:57;;;;;;;6.70;5.00;;;;;;;;;;5001902;28;20340;-76
2022/08/21 12:12:25;;;;;;;9.73;6.13;;;;;;;;;;5023132;28;20047;-75
2022/08/21 12:14:51;;;;;;;9.00;7.07;;;;;;;;;;5021600;28;20068;-78
2022/08/21 12:17:20;;;;;;;7.57;6.85;;;;;;;;;;5021998;28;20046;-77
2022/08/21 12:19:56;;;;;;;7.78;7.10;;;;;;;;;;5022469;28;20033;-79
2022/08/21 12:22:21;;;;;;;7.93;7.20;;;;;;;;;;5025043;28;20024;-76
2022/08/21 12:24:50;;;;;;;8.52;7.60;;;;;;;;;;5023922;28;20423;-78
2022/08/21 12:27:41;;;;;;;7.50;6.82;;;;;;;;;;5023947;28;20510;-76
2022/08/21 12:30:18;;;;;;;8.88;6.95;;;;;;;;;;5024647;28;20040;-77
2022/08/21 12:32:45;;;;;;;8.93;7.65;;;;;;;;;;5019794;28;20464;-76
2022/08/21 12:35:15;;;;;;;8.77;7.35;;;;;;;;;;5022060;28;20083;-78
2022/08/21 12:37:42;;;;;;;8.30;7.45;;;;;;;;;;5022669;28;20433;-76
2022/08/21 12:40:16;;;;;;;8.20;7.50;;;;;;;;;;5022424;28;20033;-76
2022/08/21 12:42:46;;;;;;;9.32;7.60;;;;;;;;;;5023288;28;20046;-77
2022/08/21 12:45:31;;;;;;;7.60;6.88;;;;;;;;;;5025067;28;20032;-77
2022/08/21 12:48:12;;;;;;;8.05;7.10;;;;;;;;;;5022917;28;20087;-82
2022/08/21 12:50:40;;;;;;;7.55;6.90;;;;;;;;;;5022082;28;20087;-77
2022/08/21 12:53:06;;;;;;;10.27;7.45;;;;;;;;;;5023652;28;20112;-78
2022/08/21 12:55:33;;;;;;;8.23;7.53;;;;;;;;;;5021250;28;20116;-79
2022/08/21 12:57:58;;;;;;;8.00;7.28;;;;;;;;;;5021402;28;20040;-77
2022/08/21 13:00:25;;;;;;;8.70;7.78;;;;;;;;;;5022185;28;20029;-75
2022/08/21 13:02:51;;;;;;;8.68;6.80;;;;;;;;;;5024328;28;20029;-80
2022/08/21 13:05:36;;;;;;;8.32;7.25;;;;;;;;;;5022518;28;20055;-76
2022/08/21 13:08:06;;;;;;;9.20;7.45;;;;;;;;;;5020883;28;20512;-77
2022/08/21 13:10:32;;;;;;;7.88;7.18;;;;;;;;;;5019508;28;20469;-77
2022/08/21 13:13:00;;;;;;;7.50;6.80;;;;;;;;;;5021816;28;20522;-76
2022/08/21 13:15:28;;;;;;;7.80;7.00;;;;;;;;;;5023513;28;20437;-78
2022/08/21 13:17:53;;;;;;;6.80;6.20;;;;;;;;;;5023091;28;20384;-76
2022/08/21 13:20:21;;;;;;;7.50;6.85;;;;;;;;;;5021420;28;20094;-76
2022/08/21 13:22:46;;;;;;;7.40;6.60;;;;;;;;;;5022363;28;20030;-76
2022/08/21 13:25:15;;;;;;;7.30;6.70;;;;;;;;;;5021535;28;20029;-79
2022/08/21 13:27:41;;;;;;;11.13;10.10;;;;;;;;;;5022970;28;20071;-77
2022/08/21 13:30:12;;;;;;;7.85;7.20;;;;;;;;;;5021766;28;20404;-76
2022/08/21 13:32:45;;;;;;;8.00;7.30;;;;;;;;;;5021709;28;20026;-77
2022/08/21 13:35:12;;;;;;;8.93;8.02;;;;;;;;;;5022160;28;20029;-78
2022/08/21 13:37:39;;;;;;;9.05;8.15;;;;;;;;;;5021138;28;20059;-77
2022/08/21 13:40:06;;;;;;;9.20;7.30;;;;;;;;;;5021190;28;20056;-77
2022/08/21 13:42:33;;;;;;;8.30;7.60;;;;;;;;;;5022419;28;20052;-77
2022/08/21 13:44:58;;;;;;;8.23;7.43;;;;;;;;;;5020320;28;20025;-76
2022/08/21 13:47:23;;;;;;;7.88;7.10;;;;;;;;;;5021508;28;20134;-76
2022/08/21 13:49:51;;;;;;;7.93;7.22;;;;;;;;;;5022031;28;20030;-76
2022/08/21 13:52:26;;;;;;;7.20;6.55;;;;;;;;;;5022455;28;20026;-77
2022/08/21 13:54:53;;;;;;;7.70;6.88;;;;;;;;;;5014369;28;20033;-76
2022/08/21 13:57:24;;;;;;;6.00;5.47;;;;;;;;;;5008093;28;20029;-76
2022/08/21 13:59:49;;;;;;;6.43;5.75;;;;;;;;;;5015199;28;20029;-77
2022/08/21 14:02:14;;;;;;;6.20;5.60;;;;;;;;;;5016342;28;20025;-78
2022/08/21 14:05:00;;;;;;;6.13;5.43;;;;;;;;;;5012287;28;20124;-76
2022/08/21 14:07:33;;;;;;;5.43;4.93;;;;;;;;;;5009526;28;20348;-77
2022/08/21 14:10:02;;;;;;;6.90;6.30;;;;;;;;;;5013450;28;20032;-78
2022/08/21 14:12:32;;;;;;;10.88;8.82;;;;;;;;;;5009722;28;20029;-75
2022/08/21 14:15:01;;;;;;;10.30;9.40;;;;;;;;;;5007620;28;20033;-77
2022/08/21 14:17:30;;;;;;;11.50;10.25;;;;;;;;;;5009374;28;20071;-76
2022/08/21 14:19:55;;;;;;;;;;;;;;;;;;4991823;28;20350;-79
2022/08/21 14:22:22;;;;;;;11.10;10.00;;;;;;;;;;5012102;28;19928;-78
2022/08/21 14:24:47;;;;;;;11.70;9.65;;;;;;;;;;5009988;28;20037;-76
2022/08/21 14:27:16;;;;;;;12.63;9.85;;;;;;;;;;5011276;28;20037;-77
2022/08/21 14:29:41;;;;;;;12.80;9.57;;;;;;;;;;5012236;28;20045;-77
2022/08/21 14:32:14;;;;;;;10.85;9.65;;;;;;;;;;5012066;28;20454;-76
2022/08/21 14:34:39;;;;;;;10.75;9.35;;;;;;;;;;5011606;28;20083;-77
2022/08/21 14:37:05;;;;;;;11.88;9.55;;;;;;;;;;5022830;28;20045;-74